Time;durP1;ratioP1;P1;durP2;ratioP2;P2;SDS_P1;SDS_P2;PMS_P1;PMS_P2;Temp;Humidity;BMP_temperature;BMP_pressure;BME280_temperature;BME280_humidity;BME280_pressure;Samples;Min_cycle;Max_cycle;Signal;HPM_P1;HPM_P2
2023/07/24 00:00:13;;;;;;;5.43;3.53;;;;;;;;;;5022000;28;20080;-84
2023/07/24 00:02:41;;;;;;;4.35;3.00;;;;;;;;;;5028793;28;20876;-79
2023/07/24 00:05:10;;;;;;;4.45;3.03;;;;;;;;;;5020232;28;20034;-82
2023/07/24 00:07:36;;;;;;;7.22;3.50;;;;;;;;;;5022148;28;20029;-82
2023/07/24 00:10:05;;;;;;;7.05;4.00;;;;;;;;;;5020622;28;20120;-83
2023/07/24 00:12:31;;;;;;;4.93;3.42;;;;;;;;;;5021305;28;20040;-85
2023/07/24 00:14:57;;;;;;;10.43;4.20;;;;;;;;;;5037455;28;20033;-82
2023/07/24 00:17:25;;;;;;;5.75;4.13;;;;;;;;;;5021022;28;20175;-85
2023/07/24 00:19:51;;;;;;;8.45;3.95;;;;;;;;;;5022788;28;20103;-82
2023/07/24 00:22:17;;;;;;;9.27;5.43;;;;;;;;;;5022452;28;20127;-85
2023/07/24 00:24:43;;;;;;;13.77;6.90;;;;;;;;;;5022281;28;20078;-82
2023/07/24 00:27:09;;;;;;;13.68;8.00;;;;;;;;;;5028904;28;20044;-82
2023/07/24 00:29:35;;;;;;;15.30;9.10;;;;;;;;;;5021952;28;20029;-84
2023/07/24 00:32:01;;;;;;;17.58;9.73;;;;;;;;;;5020480;28;20029;-81
2023/07/24 00:34:27;;;;;;;17.63;10.75;;;;;;;;;;5021359;28;20064;-82
2023/07/24 00:36:53;;;;;;;28.63;11.45;;;;;;;;;;5020942;28;20044;-84
2023/07/24 00:39:19;;;;;;;18.08;9.95;;;;;;;;;;5019218;28;20115;-81
2023/07/24 00:41:45;;;;;;;17.13;9.52;;;;;;;;;;5037801;28;20108;-84
2023/07/24 00:44:11;;;;;;;14.93;8.75;;;;;;;;;;5019163;28;20048;-83
2023/07/24 00:46:40;;;;;;;13.50;7.90;;;;;;;;;;5038872;28;20033;-82
2023/07/24 00:49:09;;;;;;;10.23;6.80;;;;;;;;;;5035870;28;20037;-83
2023/07/24 00:51:35;;;;;;;8.02;5.95;;;;;;;;;;5024412;28;20034;-82
2023/07/24 00:54:02;;;;;;;10.70;6.55;;;;;;;;;;5021610;28;20041;-83
2023/07/24 00:56:28;;;;;;;9.50;5.13;;;;;;;;;;5035505;28;20124;-83
2023/07/24 00:58:57;;;;;;;6.72;4.63;;;;;;;;;;5036307;28;20391;-84
2023/07/24 01:01:23;;;;;;;7.03;4.40;;;;;;;;;;5021445;28;20044;-82
2023/07/24 01:03:49;;;;;;;11.00;4.80;;;;;;;;;;5024552;28;20044;-82
2023/07/24 01:06:15;;;;;;;5.45;4.70;;;;;;;;;;5020206;28;20030;-83
2023/07/24 01:08:41;;;;;;;5.75;4.00;;;;;;;;;;5032195;28;20032;-80
2023/07/24 01:11:12;;;;;;;6.80;4.18;;;;;;;;;;5021358;28;20037;-81
2023/07/24 01:13:42;;;;;;;9.00;4.50;;;;;;;;;;5019224;28;20121;-81
2023/07/24 01:16:12;;;;;;;9.85;4.47;;;;;;;;;;5036412;28;20043;-81
2023/07/24 01:18:39;;;;;;;5.65;4.20;;;;;;;;;;5036652;28;20046;-80
2023/07/24 01:21:09;;;;;;;6.18;4.15;;;;;;;;;;5035176;28;20067;-79
2023/07/24 01:23:52;;;;;;;10.15;4.25;;;;;;;;;;5021778;28;21730;-83
2023/07/24 01:26:19;;;;;;;6.80;4.50;;;;;;;;;;5021464;28;20140;-82
2023/07/24 01:28:46;;;;;;;5.50;4.13;;;;;;;;;;5034057;28;20117;-78
2023/07/24 01:31:12;;;;;;;8.75;4.78;;;;;;;;;;5021326;28;20037;-79
2023/07/24 01:33:38;;;;;;;6.65;4.18;;;;;;;;;;5018700;28;20044;-82
2023/07/24 01:36:06;;;;;;;5.68;4.15;;;;;;;;;;5035228;28;20132;-83
2023/07/24 01:38:34;;;;;;;5.43;3.70;;;;;;;;;;5036065;28;20884;-82
2023/07/24 01:41:01;;;;;;;6.45;3.72;;;;;;;;;;5035890;28;20038;-80
2023/07/24 01:43:27;;;;;;;6.22;4.70;;;;;;;;;;5030294;28;20699;-82
2023/07/24 01:45:53;;;;;;;5.57;3.92;;;;;;;;;;5018994;28;20044;-82
2023/07/24 01:48:22;;;;;;;8.82;4.90;;;;;;;;;;5021318;28;20343;-81
2023/07/24 01:50:48;;;;;;;9.90;4.82;;;;;;;;;;5021123;28;20034;-83
2023/07/24 01:53:14;;;;;;;6.20;4.25;;;;;;;;;;5024614;28;20100;-81
2023/07/24 01:55:40;;;;;;;4.82;3.72;;;;;;;;;;5034581;28;20029;-79
2023/07/24 01:58:06;;;;;;;5.57;4.32;;;;;;;;;;5034312;28;20397;-81
2023/07/24 02:00:32;;;;;;;6.25;4.45;;;;;;;;;;5019368;28;20038;-76
2023/07/24 02:02:58;;;;;;;7.47;4.22;;;;;;;;;;5031090;28;20049;-82
2023/07/24 02:05:24;;;;;;;8.32;4.88;;;;;;;;;;5020360;28;20034;-83
2023/07/24 02:07:50;;;;;;;10.80;4.68;;;;;;;;;;5020507;28;20903;-80
2023/07/24 02:10:16;;;;;;;6.22;4.20;;;;;;;;;;5036371;28;20029;-80
2023/07/24 02:12:42;;;;;;;6.93;4.03;;;;;;;;;;5019831;28;20108;-81
2023/07/24 02:15:08;;;;;;;5.82;4.35;;;;;;;;;;5032171;28;20043;-81
2023/07/24 02:17:34;;;;;;;7.00;4.55;;;;;;;;;;5018311;28;20041;-83
2023/07/24 02:20:02;;;;;;;9.63;4.38;;;;;;;;;;5017926;28;20029;-83
2023/07/24 02:22:28;;;;;;;9.55;4.00;;;;;;;;;;5018593;28;20053;-84
2023/07/24 02:24:57;;;;;;;8.90;4.32;;;;;;;;;;5020237;28;20042;-82
2023/07/24 02:27:31;;;;;;;7.13;4.75;;;;;;;;;;5019831;28;20034;-84
2023/07/24 02:29:57;;;;;;;14.50;4.43;;;;;;;;;;5022943;28;20037;-78
2023/07/24 02:32:25;;;;;;;8.88;4.75;;;;;;;;;;5021530;28;20417;-83
2023/07/24 02:34:52;;;;;;;10.32;5.68;;;;;;;;;;5038727;28;20033;-81
2023/07/24 02:37:22;;;;;;;9.90;5.03;;;;;;;;;;5038954;28;20088;-80
2023/07/24 02:39:48;;;;;;;9.13;5.60;;;;;;;;;;5022639;28;20041;-79
2023/07/24 02:42:14;;;;;;;6.95;5.40;;;;;;;;;;5021002;28;20037;-79
2023/07/24 02:44:43;;;;;;;6.88;4.97;;;;;;;;;;5023143;28;20034;-82
2023/07/24 02:47:09;;;;;;;6.82;5.00;;;;;;;;;;5021896;28;20112;-81
2023/07/24 02:49:35;;;;;;;10.40;5.43;;;;;;;;;;5023479;28;20566;-83
2023/07/24 02:52:01;;;;;;;8.13;5.85;;;;;;;;;;5025332;28;20029;-79
2023/07/24 02:54:27;;;;;;;8.73;5.18;;;;;;;;;;5024405;28;20052;-83
2023/07/24 02:56:55;;;;;;;12.52;6.13;;;;;;;;;;5023769;28;20463;-82
2023/07/24 02:59:21;;;;;;;13.15;6.53;;;;;;;;;;5037893;28;20033;-84
2023/07/24 03:01:47;;;;;;;12.48;6.18;;;;;;;;;;5023785;28;20029;-82
2023/07/24 03:04:15;;;;;;;12.20;5.97;;;;;;;;;;5038449;28;20128;-81
2023/07/24 03:06:41;;;;;;;12.57;5.88;;;;;;;;;;5023931;28;20033;-82
2023/07/24 03:09:07;;;;;;;8.55;5.47;;;;;;;;;;5023323;28;20033;-81
2023/07/24 03:11:33;;;;;;;12.07;6.00;;;;;;;;;;5024172;28;20068;-83
2023/07/24 03:14:02;;;;;;;10.52;5.15;;;;;;;;;;5024719;28;20108;-80
2023/07/24 03:16:28;;;;;;;8.90;5.38;;;;;;;;;;5022607;28;20038;-84
2023/07/24 03:18:54;;;;;;;9.45;5.20;;;;;;;;;;5023565;28;20663;-82
2023/07/24 03:21:21;;;;;;;12.13;5.88;;;;;;;;;;5042461;28;20025;-81
2023/07/24 03:23:47;;;;;;;11.77;4.90;;;;;;;;;;5034526;28;20034;-80
2023/07/24 03:26:13;;;;;;;10.75;5.85;;;;;;;;;;5023610;28;20726;-84
2023/07/24 03:28:39;;;;;;;15.85;6.32;;;;;;;;;;5039532;28;20034;-82
2023/07/24 03:31:05;;;;;;;10.52;5.30;;;;;;;;;;5041649;28;20034;-80
2023/07/24 03:33:31;;;;;;;9.30;5.72;;;;;;;;;;5025284;28;20033;-82
2023/07/24 03:35:57;;;;;;;10.90;5.80;;;;;;;;;;5024687;28;20034;-78
2023/07/24 03:38:23;;;;;;;15.52;5.53;;;;;;;;;;5025480;28;20061;-78
2023/07/24 03:40:49;;;;;;;9.20;5.97;;;;;;;;;;5025000;28;20092;-83
2023/07/24 03:43:15;;;;;;;13.75;6.10;;;;;;;;;;5022825;28;20039;-81
2023/07/24 03:45:42;;;;;;;9.45;5.20;;;;;;;;;;5022643;28;20037;-80
2023/07/24 03:48:08;;;;;;;15.75;6.88;;;;;;;;;;5021907;28;20029;-83
2023/07/24 03:50:34;;;;;;;13.07;5.88;;;;;;;;;;5028163;28;20371;-80
2023/07/24 03:53:02;;;;;;;11.25;5.43;;;;;;;;;;5030850;28;20035;-80
2023/07/24 03:55:28;;;;;;;17.48;4.85;;;;;;;;;;5023865;28;20041;-82
2023/07/24 03:57:54;;;;;;;12.63;7.07;;;;;;;;;;5038479;28;20037;-79
2023/07/24 04:00:20;;;;;;;16.52;5.47;;;;;;;;;;5022874;28;20180;-81
2023/07/24 04:02:47;;;;;;;9.70;5.20;;;;;;;;;;5022416;28;20789;-81
2023/07/24 04:05:13;;;;;;;10.43;5.93;;;;;;;;;;5027608;28;20029;-80
2023/07/24 04:07:41;;;;;;;10.30;5.68;;;;;;;;;;5021733;28;20033;-81
2023/07/24 04:10:08;;;;;;;6.07;4.57;;;;;;;;;;5020370;28;20033;-80
2023/07/24 04:12:34;;;;;;;12.05;6.05;;;;;;;;;;5022091;28;20037;-81
2023/07/24 04:15:02;;;;;;;9.13;5.25;;;;;;;;;;5020162;28;20041;-80
2023/07/24 04:17:28;;;;;;;9.07;5.70;;;;;;;;;;5021721;28;20034;-82
2023/07/24 04:19:54;;;;;;;8.45;5.60;;;;;;;;;;5022193;28;20054;-82
2023/07/24 04:22:20;;;;;;;12.52;6.47;;;;;;;;;;5037342;28;20029;-83
2023/07/24 04:24:46;;;;;;;12.18;5.45;;;;;;;;;;5036461;28;20120;-80
2023/07/24 04:27:12;;;;;;;10.75;5.25;;;;;;;;;;5033206;28;20242;-83
2023/07/24 04:29:41;;;;;;;13.30;5.75;;;;;;;;;;5022223;28;20025;-81
2023/07/24 04:32:07;;;;;;;8.45;5.18;;;;;;;;;;5022052;28;20033;-84
2023/07/24 04:34:33;;;;;;;8.98;5.40;;;;;;;;;;5035706;28;20038;-83
2023/07/24 04:36:59;;;;;;;10.00;5.85;;;;;;;;;;5020465;28;20117;-81
2023/07/24 04:39:25;;;;;;;11.35;5.57;;;;;;;;;;5020991;28;20094;-84
2023/07/24 04:41:51;;;;;;;9.75;5.45;;;;;;;;;;5022504;28;20030;-83
2023/07/24 04:44:17;;;;;;;8.73;5.60;;;;;;;;;;5033807;28;20033;-81
2023/07/24 04:46:43;;;;;;;9.68;5.03;;;;;;;;;;5021782;28;20454;-77
2023/07/24 04:49:09;;;;;;;10.00;5.82;;;;;;;;;;5031352;28;20036;-81
2023/07/24 04:51:37;;;;;;;11.52;5.40;;;;;;;;;;5020609;28;20037;-83
2023/07/24 04:54:03;;;;;;;7.90;5.07;;;;;;;;;;5022261;28;20026;-79
2023/07/24 04:56:29;;;;;;;7.78;5.47;;;;;;;;;;5035203;28;20438;-79
2023/07/24 04:58:57;;;;;;;10.13;5.50;;;;;;;;;;5019841;28;20057;-81
2023/07/24 05:01:23;;;;;;;8.93;5.07;;;;;;;;;;5025559;28;20025;-81
2023/07/24 05:03:49;;;;;;;8.85;5.53;;;;;;;;;;5019409;28;20032;-82
2023/07/24 05:06:18;;;;;;;12.07;6.22;;;;;;;;;;5036251;28;20068;-79
2023/07/24 05:08:44;;;;;;;10.77;5.60;;;;;;;;;;5035222;28;20033;-82
2023/07/24 05:11:09;;;;;;;9.73;5.60;;;;;;;;;;5025109;28;20112;-82
2023/07/24 05:13:35;;;;;;;9.65;5.15;;;;;;;;;;5021481;28;20035;-82
2023/07/24 05:16:01;;;;;;;7.97;5.32;;;;;;;;;;5020732;28;20030;-83
2023/07/24 05:18:27;;;;;;;12.43;5.45;;;;;;;;;;5036507;28;20443;-79
2023/07/24 05:20:56;;;;;;;12.52;6.07;;;;;;;;;;5020909;28;20087;-82
2023/07/24 05:23:22;;;;;;;7.82;5.28;;;;;;;;;;5034585;28;20366;-83
2023/07/24 05:25:50;;;;;;;11.32;5.70;;;;;;;;;;5019873;28;20041;-82
2023/07/24 05:28:16;;;;;;;6.53;4.70;;;;;;;;;;5035480;28;20025;-81
2023/07/24 05:30:42;;;;;;;11.07;5.95;;;;;;;;;;5020063;28;20022;-83
2023/07/24 05:33:08;;;;;;;11.27;5.47;;;;;;;;;;5018813;28;20047;-81
2023/07/24 05:35:34;;;;;;;8.88;5.35;;;;;;;;;;5017999;28;20037;-79
2023/07/24 05:38:00;;;;;;;11.18;5.53;;;;;;;;;;5026027;28;20038;-81
2023/07/24 05:40:26;;;;;;;13.32;6.20;;;;;;;;;;5035627;28;20097;-81
2023/07/24 05:42:55;;;;;;;9.05;5.40;;;;;;;;;;5019073;28;20070;-84
2023/07/24 05:45:21;;;;;;;7.50;4.55;;;;;;;;;;5019286;28;20060;-84
2023/07/24 05:47:47;;;;;;;8.07;5.32;;;;;;;;;;5017479;28;20438;-83
2023/07/24 05:50:15;;;;;;;10.80;4.97;;;;;;;;;;5032788;28;20036;-83
2023/07/24 05:52:41;;;;;;;8.20;4.60;;;;;;;;;;5033517;28;20030;-79
2023/07/24 05:55:08;;;;;;;9.80;4.57;;;;;;;;;;5018985;28;20045;-82
2023/07/24 05:57:34;;;;;;;6.85;4.80;;;;;;;;;;5018337;28;20047;-82
2023/07/24 06:00:00;;;;;;;11.52;4.45;;;;;;;;;;5021917;28;20025;-79
2023/07/24 06:02:26;;;;;;;8.70;4.15;;;;;;;;;;5021602;28;20034;-79
2023/07/24 06:04:52;;;;;;;6.80;4.45;;;;;;;;;;5021001;28;20500;-84
2023/07/24 06:07:20;;;;;;;10.02;5.00;;;;;;;;;;5038066;28;20026;-80
2023/07/24 06:09:46;;;;;;;7.45;4.20;;;;;;;;;;5022499;28;20029;-84
2023/07/24 06:12:12;;;;;;;4.50;3.63;;;;;;;;;;5042219;28;20026;-81
2023/07/24 06:14:38;;;;;;;5.47;3.78;;;;;;;;;;5022605;28;20044;-84
2023/07/24 06:17:04;;;;;;;7.32;3.97;;;;;;;;;;5024544;28;20034;-85
2023/07/24 06:19:30;;;;;;;7.55;4.20;;;;;;;;;;5038292;28;20037;-83
2023/07/24 06:21:56;;;;;;;8.35;3.85;;;;;;;;;;5023430;28;20041;-83
2023/07/24 06:24:23;;;;;;;6.43;3.95;;;;;;;;;;5027813;28;20037;-81
2023/07/24 06:26:49;;;;;;;8.68;3.50;;;;;;;;;;5037388;28;20147;-81
2023/07/24 06:29:15;;;;;;;7.05;3.63;;;;;;;;;;5021402;28;20030;-82
2023/07/24 06:31:41;;;;;;;6.63;4.05;;;;;;;;;;5021379;28;20087;-82
2023/07/24 06:34:10;;;;;;;10.40;3.65;;;;;;;;;;5037480;28;20034;-81
2023/07/24 06:36:38;;;;;;;5.50;3.67;;;;;;;;;;5036839;28;20107;-84
2023/07/24 06:39:06;;;;;;;6.68;2.97;;;;;;;;;;5027783;28;20470;-80
2023/07/24 06:41:32;;;;;;;8.52;3.40;;;;;;;;;;5029226;28;20033;-86
2023/07/24 06:43:58;;;;;;;5.60;3.38;;;;;;;;;;5032706;28;20080;-79
2023/07/24 06:46:24;;;;;;;5.35;3.47;;;;;;;;;;5023832;28;20124;-81
2023/07/24 06:48:52;;;;;;;6.65;2.80;;;;;;;;;;5023322;28;20059;-79
2023/07/24 06:51:18;;;;;;;6.88;3.00;;;;;;;;;;5022444;28;20032;-83
2023/07/24 06:53:47;;;;;;;5.38;2.75;;;;;;;;;;5037885;28;20116;-83
2023/07/24 06:56:13;;;;;;;4.97;2.63;;;;;;;;;;5036963;28;20041;-80
2023/07/24 06:58:39;;;;;;;6.00;2.63;;;;;;;;;;5020303;28;20721;-81
2023/07/24 07:01:08;;;;;;;4.50;2.97;;;;;;;;;;5021078;28;20442;-79
2023/07/24 07:03:35;;;;;;;4.13;2.85;;;;;;;;;;5019699;28;20038;-80
2023/07/24 07:06:02;;;;;;;4.47;2.30;;;;;;;;;;5019547;28;20048;-82
2023/07/24 07:08:30;;;;;;;8.23;2.70;;;;;;;;;;5022293;28;20029;-84
2023/07/24 07:10:57;;;;;;;4.78;2.78;;;;;;;;;;5037887;28;20083;-82
2023/07/24 07:13:23;;;;;;;4.13;2.50;;;;;;;;;;5036732;28;20028;-81
2023/07/24 07:15:49;;;;;;;3.72;2.65;;;;;;;;;;5022459;28;20029;-80
2023/07/24 07:18:15;;;;;;;4.90;2.70;;;;;;;;;;5021972;28;20038;-83
2023/07/24 07:20:49;;;;;;;5.15;2.80;;;;;;;;;;5035400;28;20038;-81
2023/07/24 07:23:15;;;;;;;2.95;2.13;;;;;;;;;;5019625;28;20037;-82
2023/07/24 07:25:43;;;;;;;5.65;2.40;;;;;;;;;;5020014;28;20109;-83
2023/07/24 07:28:09;;;;;;;6.15;2.58;;;;;;;;;;5022492;28;20125;-79
2023/07/24 07:30:35;;;;;;;3.58;2.28;;;;;;;;;;5020488;28;20033;-82
2023/07/24 07:33:01;;;;;;;5.68;2.17;;;;;;;;;;5021687;28;20370;-79
2023/07/24 07:35:27;;;;;;;3.13;2.00;;;;;;;;;;5021434;28;20466;-83
2023/07/24 07:37:53;;;;;;;3.63;2.08;;;;;;;;;;5035744;28;20056;-82
2023/07/24 07:40:19;;;;;;;4.43;2.42;;;;;;;;;;5020598;28;20025;-80
2023/07/24 07:42:45;;;;;;;3.53;2.38;;;;;;;;;;5035988;28;20034;-82
2023/07/24 07:45:11;;;;;;;6.22;2.67;;;;;;;;;;5036719;28;20126;-82
2023/07/24 07:47:37;;;;;;;4.43;2.22;;;;;;;;;;5035860;28;20025;-83
2023/07/24 07:50:06;;;;;;;5.40;3.00;;;;;;;;;;5035627;28;20095;-79
2023/07/24 07:52:32;;;;;;;5.32;3.25;;;;;;;;;;5018950;28;20040;-83
2023/07/24 07:54:58;;;;;;;5.95;2.97;;;;;;;;;;5034260;28;20029;-81
2023/07/24 07:57:26;;;;;;;5.30;2.97;;;;;;;;;;5020829;28;20037;-82
2023/07/24 07:59:52;;;;;;;4.47;2.75;;;;;;;;;;5021394;28;20037;-80
2023/07/24 08:02:18;;;;;;;6.20;2.65;;;;;;;;;;5018713;28;20037;-81
2023/07/24 08:04:44;;;;;;;5.40;3.08;;;;;;;;;;5019003;28;20091;-82
2023/07/24 08:07:10;;;;;;;3.97;2.80;;;;;;;;;;5035666;28;20088;-81
2023/07/24 08:09:38;;;;;;;5.93;2.55;;;;;;;;;;5019088;28;20717;-79
2023/07/24 08:12:04;;;;;;;3.05;2.42;;;;;;;;;;5033808;28;20029;-84
2023/07/24 08:14:30;;;;;;;3.85;2.50;;;;;;;;;;5021600;28;20041;-82
2023/07/24 08:16:56;;;;;;;4.50;2.65;;;;;;;;;;5035818;28;20038;-81
2023/07/24 08:19:22;;;;;;;5.75;3.25;;;;;;;;;;5032022;28;20567;-81
2023/07/24 08:21:48;;;;;;;6.65;2.95;;;;;;;;;;5037172;28;20038;-84
2023/07/24 08:24:14;;;;;;;6.68;3.05;;;;;;;;;;5034479;28;20044;-80
2023/07/24 08:26:42;;;;;;;4.78;2.83;;;;;;;;;;5023596;28;20620;-84
2023/07/24 08:29:08;;;;;;;4.35;3.28;;;;;;;;;;5018808;28;20034;-77
2023/07/24 08:31:34;;;;;;;6.70;2.95;;;;;;;;;;5018974;28;20037;-84
2023/07/24 08:34:00;;;;;;;6.05;3.17;;;;;;;;;;5020027;28;20022;-83
2023/07/24 08:36:26;;;;;;;6.20;3.30;;;;;;;;;;5036349;28;20029;-81
2023/07/24 08:38:54;;;;;;;5.03;2.92;;;;;;;;;;5018659;28;20068;-82
2023/07/24 08:41:21;;;;;;;4.43;2.55;;;;;;;;;;5019446;28;20030;-81
2023/07/24 08:43:47;;;;;;;4.72;3.13;;;;;;;;;;5022960;28;20434;-80
2023/07/24 08:46:13;;;;;;;6.78;3.53;;;;;;;;;;5033856;28;20443;-80
2023/07/24 08:48:42;;;;;;;4.28;2.78;;;;;;;;;;5017726;28;20043;-78
2023/07/24 08:51:13;;;;;;;5.78;2.72;;;;;;;;;;5024713;28;20025;-83
2023/07/24 08:53:40;;;;;;;3.88;3.00;;;;;;;;;;5033001;28;20034;-84
2023/07/24 08:56:10;;;;;;;5.32;2.83;;;;;;;;;;5019572;28;20030;-81
2023/07/24 08:58:36;;;;;;;5.72;2.95;;;;;;;;;;5017759;28;20113;-83
2023/07/24 09:01:03;;;;;;;3.25;2.60;;;;;;;;;;5019011;28;20030;-80
2023/07/24 09:03:35;;;;;;;3.78;2.85;;;;;;;;;;5023423;28;20053;-82
2023/07/24 09:06:03;;;;;;;5.72;2.45;;;;;;;;;;5020490;28;20060;-85
2023/07/24 09:08:34;;;;;;;4.20;2.75;;;;;;;;;;5019096;28;20025;-81
2023/07/24 09:11:02;;;;;;;3.05;2.30;;;;;;;;;;5026797;28;20112;-80
2023/07/24 09:13:29;;;;;;;4.50;2.95;;;;;;;;;;5016737;28;20079;-82
2023/07/24 09:15:55;;;;;;;5.18;2.50;;;;;;;;;;5018939;28;20040;-82
2023/07/24 09:18:21;;;;;;;5.38;2.45;;;;;;;;;;5019282;28;20021;-81
2023/07/24 09:20:47;;;;;;;5.35;2.13;;;;;;;;;;5028643;28;20060;-81
2023/07/24 09:23:14;;;;;;;2.72;1.88;;;;;;;;;;5016949;28;20134;-84
2023/07/24 09:25:42;;;;;;;5.28;2.70;;;;;;;;;;5019629;28;20053;-84
2023/07/24 09:28:14;;;;;;;2.92;2.10;;;;;;;;;;5018008;28;20025;-80
2023/07/24 09:30:40;;;;;;;5.93;1.90;;;;;;;;;;5023641;28;20026;-83
2023/07/24 09:33:09;;;;;;;2.63;1.80;;;;;;;;;;5018159;28;20033;-81
2023/07/24 09:35:37;;;;;;;3.85;2.10;;;;;;;;;;5028523;28;20032;-83
2023/07/24 09:38:07;;;;;;;2.90;1.92;;;;;;;;;;5018544;28;20063;-80
2023/07/24 09:40:40;;;;;;;2.58;1.90;;;;;;;;;;5018197;28;20052;-83
2023/07/24 09:43:26;;;;;;;4.70;2.13;;;;;;;;;;5030263;28;20117;-81
2023/07/24 09:45:53;;;;;;;3.20;1.83;;;;;;;;;;5015998;28;20045;-82
2023/07/24 09:48:20;;;;;;;3.53;2.25;;;;;;;;;;5033255;28;20096;-81
2023/07/24 09:50:52;;;;;;;2.38;1.73;;;;;;;;;;5018441;28;20030;-80
2023/07/24 09:53:18;;;;;;;;;;;;;;;;;;5018629;28;20029;-83
2023/07/24 09:55:50;;;;;;;4.07;2.40;;;;;;;;;;5018175;28;20237;-84
2023/07/24 09:58:16;;;;;;;3.50;1.63;;;;;;;;;;5018306;28;20040;-82
2023/07/24 10:00:43;;;;;;;4.03;2.10;;;;;;;;;;5016394;28;20045;-82
2023/07/24 10:03:09;;;;;;;6.40;2.60;;;;;;;;;;5018147;28;20041;-81
2023/07/24 10:05:36;;;;;;;2.53;1.98;;;;;;;;;;5018636;28;20037;-79
2023/07/24 10:08:02;;;;;;;2.05;1.70;;;;;;;;;;5017697;28;20123;-81
2023/07/24 10:10:32;;;;;;;2.75;1.63;;;;;;;;;;5016202;28;20054;-81
2023/07/24 10:12:58;;;;;;;5.72;3.05;;;;;;;;;;5033226;28;20040;-84
2023/07/24 10:15:25;;;;;;;5.32;4.05;;;;;;;;;;5017681;28;20059;-82
2023/07/24 10:18:01;;;;;;;5.10;3.05;;;;;;;;;;5017277;28;20830;-83
2023/07/24 10:20:33;;;;;;;5.68;3.47;;;;;;;;;;5019074;28;20355;-81
2023/07/24 10:22:59;;;;;;;;;;;;;;;;;;5027375;28;20040;-79
2023/07/24 10:25:30;;;;;;;4.55;2.67;;;;;;;;;;5014642;28;19924;-82
2023/07/24 10:28:01;;;;;;;2.15;1.85;;;;;;;;;;5031777;28;20096;-81
2023/07/24 10:30:30;;;;;;;4.35;2.00;;;;;;;;;;5016512;28;20034;-81
2023/07/24 10:33:04;;;;;;;3.20;2.25;;;;;;;;;;5033146;28;20049;-79
2023/07/24 10:35:37;;;;;;;4.05;2.30;;;;;;;;;;5018501;28;20053;-78
2023/07/24 10:38:03;;;;;;;3.35;2.13;;;;;;;;;;5029746;28;20037;-82
2023/07/24 10:40:30;;;;;;;4.00;2.17;;;;;;;;;;5020390;28;20034;-83
2023/07/24 10:43:06;;;;;;;3.85;2.17;;;;;;;;;;5015716;28;20031;-79
2023/07/24 10:45:48;;;;;;;2.63;2.05;;;;;;;;;;5016498;28;20029;-82
2023/07/24 10:48:15;;;;;;;3.92;2.40;;;;;;;;;;5033007;28;20033;-80
2023/07/24 10:50:42;;;;;;;3.25;1.95;;;;;;;;;;5038104;28;20029;-80
2023/07/24 10:53:11;;;;;;;3.13;2.13;;;;;;;;;;5020931;28;20107;-80
2023/07/24 10:55:40;;;;;;;3.28;2.20;;;;;;;;;;5027672;28;20064;-83
2023/07/24 10:58:06;;;;;;;2.90;1.98;;;;;;;;;;5021929;28;20037;-81
2023/07/24 11:00:32;;;;;;;3.70;2.10;;;;;;;;;;5020993;28;20041;-80
2023/07/24 11:02:58;;;;;;;3.63;2.25;;;;;;;;;;5020287;28;20033;-81
2023/07/24 11:05:24;;;;;;;5.75;3.22;;;;;;;;;;5035265;28;20038;-80
2023/07/24 11:07:53;;;;;;;4.90;2.38;;;;;;;;;;5022348;28;20013;-82
2023/07/24 11:10:19;;;;;;;5.82;2.70;;;;;;;;;;5035023;28;20470;-81
2023/07/24 11:12:46;;;;;;;4.93;2.45;;;;;;;;;;5019661;28;20034;-80
2023/07/24 11:15:12;;;;;;;3.83;2.67;;;;;;;;;;5021690;28;20132;-80
2023/07/24 11:17:42;;;;;;;2.97;2.08;;;;;;;;;;5035894;28;20025;-83
2023/07/24 11:20:12;;;;;;;2.95;2.00;;;;;;;;;;5017239;28;20033;-79
2023/07/24 11:22:42;;;;;;;5.30;2.60;;;;;;;;;;5019834;28;20033;-80
2023/07/24 11:25:09;;;;;;;4.65;2.50;;;;;;;;;;5020526;28;20025;-79
2023/07/24 11:27:40;;;;;;;3.55;2.45;;;;;;;;;;5018185;28;20137;-78
2023/07/24 11:30:06;;;;;;;4.55;2.40;;;;;;;;;;5032437;28;20026;-80
2023/07/24 11:32:32;;;;;;;7.25;2.78;;;;;;;;;;5036630;28;20190;-79
2023/07/24 11:34:59;;;;;;;5.10;2.30;;;;;;;;;;5018251;28;20521;-80
2023/07/24 11:37:25;;;;;;;7.55;2.70;;;;;;;;;;5034802;28;20030;-83
2023/07/24 11:40:08;;;;;;;24.63;3.60;;;;;;;;;;5019368;28;20450;-77
2023/07/24 11:42:37;;;;;;;11.75;2.63;;;;;;;;;;5036113;28;20032;-79
2023/07/24 11:45:03;;;;;;;8.65;2.67;;;;;;;;;;5035682;28;20045;-76
2023/07/24 11:47:32;;;;;;;5.65;2.17;;;;;;;;;;5020250;28;20048;-78
2023/07/24 11:50:04;;;;;;;5.47;2.15;;;;;;;;;;5024484;28;20030;-79
2023/07/24 11:52:30;;;;;;;;;;;;;;;;;;5022141;28;20022;-80
2023/07/24 11:55:03;;;;;;;3.15;1.83;;;;;;;;;;5022734;28;20496;-77
2023/07/24 11:57:31;;;;;;;3.60;1.70;;;;;;;;;;5036342;28;20117;-81
2023/07/24 12:00:00;;;;;;;5.05;1.85;;;;;;;;;;5019172;28;20038;-77
2023/07/24 12:02:27;;;;;;;5.22;1.90;;;;;;;;;;5017022;28;21802;-81
2023/07/24 12:05:03;;;;;;;4.45;1.73;;;;;;;;;;5034065;28;20043;-81
2023/07/24 12:07:32;;;;;;;2.47;1.75;;;;;;;;;;5018862;28;20148;-82
2023/07/24 12:09:58;;;;;;;3.38;1.83;;;;;;;;;;5020632;28;20057;-79
2023/07/24 12:12:24;;;;;;;4.43;2.13;;;;;;;;;;5018684;28;20030;-75
2023/07/24 12:14:50;;;;;;;4.30;2.28;;;;;;;;;;5018585;28;20036;-79
2023/07/24 12:17:20;;;;;;;5.28;2.35;;;;;;;;;;5026205;28;20034;-76
2023/07/24 12:19:48;;;;;;;7.63;2.40;;;;;;;;;;5020960;28;20092;-77
2023/07/24 12:22:14;;;;;;;5.75;2.78;;;;;;;;;;5019843;28;20276;-80
2023/07/24 12:24:40;;;;;;;3.33;2.85;;;;;;;;;;5016949;28;20930;-78
2023/07/24 12:27:09;;;;;;;5.75;3.92;;;;;;;;;;5017957;28;21044;-77
2023/07/24 12:29:35;;;;;;;8.75;4.00;;;;;;;;;;5021396;28;20036;-77
2023/07/24 12:32:01;;;;;;;3.33;2.95;;;;;;;;;;5018704;28;20034;-80
2023/07/24 12:34:27;;;;;;;4.50;2.50;;;;;;;;;;5032434;28;21686;-80
2023/07/24 12:36:54;;;;;;;4.25;2.33;;;;;;;;;;5034752;28;20103;-79
2023/07/24 12:39:20;;;;;;;4.50;2.38;;;;;;;;;;5033347;28;20030;-79
2023/07/24 12:41:46;;;;;;;5.20;2.42;;;;;;;;;;5030670;28;20956;-75
2023/07/24 12:44:12;;;;;;;3.83;2.05;;;;;;;;;;5020025;28;20528;-83
2023/07/24 12:46:38;;;;;;;2.65;2.15;;;;;;;;;;5034488;28;20036;-76
2023/07/24 12:49:04;;;;;;;6.93;1.80;;;;;;;;;;5019504;28;20049;-82
2023/07/24 12:51:30;;;;;;;2.40;1.60;;;;;;;;;;5026856;28;20512;-79
2023/07/24 12:53:55;;;;;;;2.20;1.48;;;;;;;;;;5018317;28;20065;-80
2023/07/24 12:56:21;;;;;;;2.55;1.70;;;;;;;;;;5021027;28;20037;-84
2023/07/24 12:58:52;;;;;;;1.77;1.15;;;;;;;;;;5033874;28;20124;-78
2023/07/24 13:01:20;;;;;;;2.97;1.30;;;;;;;;;;5019090;28;20039;-80
2023/07/24 13:03:46;;;;;;;10.43;1.90;;;;;;;;;;5017673;28;20749;-81
2023/07/24 13:06:12;;;;;;;5.28;2.10;;;;;;;;;;5034326;28;20033;-82
2023/07/24 13:08:41;;;;;;;6.28;2.55;;;;;;;;;;5017807;28;20041;-77
2023/07/24 13:11:07;;;;;;;4.53;2.28;;;;;;;;;;5019566;28;20517;-82
2023/07/24 13:13:33;;;;;;;7.93;2.97;;;;;;;;;;5018940;28;20030;-79
2023/07/24 13:16:01;;;;;;;4.85;2.05;;;;;;;;;;5017158;28;20754;-85
2023/07/24 13:18:27;;;;;;;4.28;2.25;;;;;;;;;;5036879;28;20044;-80
2023/07/24 13:20:53;;;;;;;3.70;1.63;;;;;;;;;;5017245;28;20128;-84
2023/07/24 13:23:19;;;;;;;2.97;2.10;;;;;;;;;;5018305;28;20440;-83
2023/07/24 13:25:45;;;;;;;2.45;1.50;;;;;;;;;;5017256;28;20034;-80
2023/07/24 13:28:11;;;;;;;3.88;1.60;;;;;;;;;;5032289;28;20032;-80
2023/07/24 13:30:37;;;;;;;3.63;1.67;;;;;;;;;;5017231;28;20402;-78
2023/07/24 13:33:03;;;;;;;1.52;1.20;;;;;;;;;;5018230;28;20041;-80
2023/07/24 13:35:29;;;;;;;5.97;1.50;;;;;;;;;;5019620;28;20060;-81
2023/07/24 13:37:57;;;;;;;5.32;1.38;;;;;;;;;;5016538;28;20030;-83
2023/07/24 13:40:23;;;;;;;3.55;1.40;;;;;;;;;;5018490;28;20045;-83
2023/07/24 13:42:50;;;;;;;3.63;2.55;;;;;;;;;;5018873;28;20079;-76
2023/07/24 13:45:16;;;;;;;1.80;1.20;;;;;;;;;;5034306;28;20033;-82
2023/07/24 13:47:42;;;;;;;9.77;1.90;;;;;;;;;;5017271;28;20036;-83
2023/07/24 13:50:08;;;;;;;2.47;1.40;;;;;;;;;;5019099;28;20026;-80
2023/07/24 13:52:34;;;;;;;2.92;1.20;;;;;;;;;;5019073;28;20104;-80
2023/07/24 13:55:00;;;;;;;3.58;1.17;;;;;;;;;;5016312;28;20084;-83
2023/07/24 13:57:26;;;;;;;2.08;1.35;;;;;;;;;;5023515;28;20824;-76
2023/07/24 13:59:54;;;;;;;2.92;1.42;;;;;;;;;;5018796;28;20212;-80
2023/07/24 14:02:20;;;;;;;4.03;1.40;;;;;;;;;;5018012;28;20033;-78
2023/07/24 14:04:46;;;;;;;3.40;1.63;;;;;;;;;;5018081;28;20064;-80
2023/07/24 14:07:14;;;;;;;3.08;1.65;;;;;;;;;;5017487;28;20033;-85
2023/07/24 14:09:40;;;;;;;1.58;1.30;;;;;;;;;;5016541;28;20033;-81
2023/07/24 14:12:07;;;;;;;1.75;1.13;;;;;;;;;;5017433;28;20029;-81
2023/07/24 14:14:33;;;;;;;2.80;1.33;;;;;;;;;;5018166;28;20041;-79
2023/07/24 14:17:01;;;;;;;6.43;1.63;;;;;;;;;;5018177;28;20025;-81
2023/07/24 14:19:27;;;;;;;9.18;1.30;;;;;;;;;;5035862;28;20120;-80
2023/07/24 14:21:53;;;;;;;2.78;1.48;;;;;;;;;;5033029;28;20603;-80
2023/07/24 14:24:19;;;;;;;1.65;1.35;;;;;;;;;;5036199;28;20029;-85
2023/07/24 14:26:45;;;;;;;2.38;1.70;;;;;;;;;;5037282;28;20041;-78
2023/07/24 14:29:11;;;;;;;2.22;1.13;;;;;;;;;;5021429;28;20060;-79
2023/07/24 14:31:37;;;;;;;2.38;1.60;;;;;;;;;;5020048;28;20104;-83
2023/07/24 14:34:04;;;;;;;4.25;1.35;;;;;;;;;;5023665;28;20033;-81
2023/07/24 14:36:33;;;;;;;3.05;1.63;;;;;;;;;;5034927;28;20111;-79
2023/07/24 14:39:02;;;;;;;4.97;1.75;;;;;;;;;;5020736;28;20069;-83